Terminal Aerodrome Forecast
Issued by NWS State College, PA

Home | Current Version | Previous Version | Text Only | Print | Product List | Glossary On
Versions: 1 2 3 4 5 6 7 8 9 10 11 12 13 14 15 16 17 18 19 20 21 22 23 24 25 26 27 28
000
FTUS41 KCTP 231139
TAFMDT
TAF
KMDT 231139Z 2312/2412 VRB04KT 4SM RA BR SCT025 OVC050
      TEMPO 2312/2314 2SM +RA BR BKN025 OVC040
     FM231400 21007KT 4SM -SHRA BR BKN025 OVC060
     FM231700 24013G23KT 6SM -SHRA HZ VCTS OVC025CB
     FM232200 23013G23KT 5SM -RA BR OVC025=

USA.gov is the U.S. government's official web portal to all federal, state and local government web resources and services.